Time;durP1;ratioP1;P1;durP2;ratioP2;P2;SDS_P1;SDS_P2;PMS_P1;PMS_P2;Temp;Humidity;BMP_temperature;BMP_pressure;BME280_temperature;BME280_humidity;BME280_pressure;Samples;Min_cycle;Max_cycle;Signal;HPM_P1;HPM_P2
2023/10/06 00:01:48;;;;;;;0.00;0.00;;;9.30;99.90;;;;;;5090835;28;20220;-60
2023/10/06 00:04:18;;;;;;;0.00;0.00;;;9.30;99.90;;;;;;5090714;28;20187;-60
2023/10/06 00:06:45;;;;;;;0.00;0.00;;;9.20;99.90;;;;;;5090669;28;20616;-60
2023/10/06 00:12:06;;;;;;;0.00;0.00;;;9.20;99.90;;;;;;5081445;28;20249;-61
2023/10/06 00:14:48;;;;;;;0.00;0.00;;;9.20;99.90;;;;;;5090827;28;20177;-60
2023/10/06 00:17:18;;;;;;;0.00;0.00;;;9.20;99.90;;;;;;5090630;28;20184;-60
2023/10/06 00:19:51;;;;;;;0.00;0.00;;;9.20;99.90;;;;;;5089078;28;20267;-61
2023/10/06 00:24:44;;;;;;;0.00;0.00;;;9.10;99.90;;;;;;5090441;28;20176;-61
2023/10/06 00:27:13;;;;;;;0.00;0.00;;;9.00;99.90;;;;;;5090458;28;20563;-61
2023/10/06 00:29:54;;;;;;;0.00;0.00;;;9.00;99.90;;;;;;5090220;28;20221;-61
2023/10/06 00:32:23;;;;;;;0.00;0.00;;;8.90;99.90;;;;;;5092756;28;20183;-61
2023/10/06 00:34:49;;;;;;;0.00;0.00;;;8.90;99.90;;;;;;5093963;28;20199;-62
2023/10/06 00:37:22;;;;;;;0.00;0.00;;;8.90;99.90;;;;;;5093778;28;20224;-62
2023/10/06 00:39:50;;;;;;;0.00;0.00;;;8.90;99.90;;;;;;5093720;28;20659;-62
2023/10/06 00:42:20;;;;;;;0.10;0.10;;;8.80;99.90;;;;;;5093505;28;20224;-62
2023/10/06 00:44:46;;;;;;;0.00;0.00;;;8.80;99.90;;;;;;5093718;28;20772;-62
2023/10/06 00:47:15;;;;;;;0.00;0.00;;;8.80;99.90;;;;;;5093865;28;20635;-62
2023/10/06 00:49:43;;;;;;;0.00;0.00;;;8.80;99.90;;;;;;5092354;28;20176;-62
2023/10/06 00:52:12;;;;;;;0.00;0.00;;;8.70;99.90;;;;;;5093448;28;20183;-62
2023/10/06 00:54:43;;;;;;;0.00;0.00;;;8.70;99.90;;;;;;5093464;28;20648;-62
2023/10/06 00:57:11;;;;;;;0.20;0.20;;;8.70;99.90;;;;;;5093566;28;20870;-62
2023/10/06 00:59:37;;;;;;;0.00;0.00;;;8.70;99.90;;;;;;5093496;28;20182;-62
2023/10/06 01:02:08;;;;;;;0.00;0.00;;;8.70;99.90;;;;;;5093289;28;20227;-62
2023/10/06 01:04:44;;;;;;;0.00;0.00;;;8.70;99.90;;;;;;5093258;28;20233;-62
2023/10/06 01:07:12;;;;;;;0.10;0.10;;;8.70;99.90;;;;;;5093731;28;20175;-62
2023/10/06 01:09:38;;;;;;;0.00;0.00;;;8.60;99.90;;;;;;5093195;28;20292;-62
2023/10/06 01:12:10;;;;;;;0.00;0.00;;;8.60;99.90;;;;;;5093148;28;20180;-61
2023/10/06 01:14:36;;;;;;;0.00;0.00;;;8.70;99.90;;;;;;5093128;28;20730;-62
2023/10/06 01:19:36;;;;;;;0.00;0.00;;;8.70;99.90;;;;;;5092977;28;20176;-61
2023/10/06 01:22:19;;;;;;;0.00;0.00;;;8.70;99.90;;;;;;5093151;28;20219;-62
2023/10/06 01:24:46;;;;;;;0.05;0.05;;;8.70;99.90;;;;;;5093121;28;20184;-62
2023/10/06 01:27:11;;;;;;;0.00;0.00;;;8.70;99.90;;;;;;5092963;28;20176;-62
2023/10/06 01:29:38;;;;;;;0.00;0.00;;;8.60;99.90;;;;;;5092895;28;20275;-62
2023/10/06 01:32:05;;;;;;;0.08;0.08;;;8.50;99.90;;;;;;5092868;28;20188;-62
2023/10/06 01:34:38;;;;;;;0.08;0.08;;;8.50;99.90;;;;;;5092830;28;20173;-63
2023/10/06 01:37:05;;;;;;;0.00;0.00;;;8.50;99.90;;;;;;5092075;28;20184;-62
2023/10/06 01:39:34;;;;;;;0.00;0.00;;;8.50;99.90;;;;;;5092575;28;20249;-62
2023/10/06 01:42:04;;;;;;;0.00;0.00;;;8.50;99.90;;;;;;5091864;28;20216;-62
2023/10/06 01:44:30;;;;;;;0.00;0.00;;;8.40;99.90;;;;;;5091617;28;20161;-63
2023/10/06 01:46:55;;;;;;;0.00;0.00;;;8.40;99.90;;;;;;5092455;28;20659;-62
2023/10/06 01:49:22;;;;;;;0.10;0.10;;;8.40;99.90;;;;;;5091076;28;20217;-62
2023/10/06 01:51:50;;;;;;;0.00;0.00;;;8.40;99.90;;;;;;5092595;28;20237;-62
2023/10/06 01:54:18;;;;;;;0.00;0.00;;;8.40;99.90;;;;;;5090986;28;20176;-62
2023/10/06 01:56:44;;;;;;;0.00;0.00;;;8.30;99.90;;;;;;5092382;28;20192;-62
2023/10/06 01:59:16;;;;;;;0.00;0.00;;;8.30;99.90;;;;;;5092526;28;20172;-61
2023/10/06 02:01:42;;;;;;;0.20;0.20;;;8.20;99.90;;;;;;5092081;28;20660;-62
2023/10/06 02:04:14;;;;;;;0.00;0.00;;;8.10;99.90;;;;;;5092379;28;20184;-61
2023/10/06 02:06:48;;;;;;;0.00;0.00;;;8.10;99.90;;;;;;5092929;28;20180;-61
2023/10/06 02:09:18;;;;;;;0.00;0.00;;;8.10;99.90;;;;;;5094616;28;20195;-61
2023/10/06 02:11:44;;;;;;;0.00;0.00;;;;;;;;;;5094071;28;20164;-62
2023/10/06 02:14:12;;;;;;;0.00;0.00;;;8.10;99.90;;;;;;5093481;28;20693;-62
2023/10/06 02:16:38;;;;;;;0.00;0.00;;;8.00;99.90;;;;;;5088864;28;20217;-62
2023/10/06 02:19:08;;;;;;;0.00;0.00;;;8.00;99.90;;;;;;5092560;28;20573;-61
2023/10/06 02:21:35;;;;;;;0.00;0.00;;;8.00;99.90;;;;;;5093933;28;20576;-62
2023/10/06 02:24:04;;;;;;;0.05;0.05;;;8.00;99.90;;;;;;5095261;28;20259;-61
2023/10/06 02:26:36;;;;;;;0.00;0.00;;;8.00;99.90;;;;;;5095695;28;20183;-62
2023/10/06 02:29:01;;;;;;;0.43;0.43;;;8.00;99.90;;;;;;5095683;28;20176;-62
2023/10/06 02:31:27;;;;;;;0.00;0.00;;;8.00;99.90;;;;;;5092355;28;20229;-62
2023/10/06 02:33:53;;;;;;;0.00;0.00;;;8.10;99.90;;;;;;5091614;28;20183;-61
2023/10/06 02:36:21;;;;;;;0.00;0.00;;;8.10;99.90;;;;;;5091657;28;20202;-62
2023/10/06 02:38:47;;;;;;;0.00;0.00;;;8.10;99.90;;;;;;5091543;28;20247;-62
2023/10/06 02:41:23;;;;;;;0.00;0.00;;;8.10;99.90;;;;;;5091436;28;20690;-63
2023/10/06 02:43:50;;;;;;;0.00;0.00;;;8.10;99.90;;;;;;5091678;28;20175;-62
2023/10/06 02:46:16;;;;;;;0.00;0.00;;;8.10;99.90;;;;;;5090031;28;20658;-62
2023/10/06 02:48:51;;;;;;;0.00;0.00;;;8.10;99.90;;;;;;5091170;28;20183;-62
2023/10/06 02:51:29;;;;;;;0.00;0.00;;;8.10;99.90;;;;;;5091595;28;20175;-62
2023/10/06 02:54:46;;;;;;;0.00;0.00;;;8.10;99.90;;;;;;5090669;28;20715;-62
2023/10/06 02:56:46;;;;;;;0.00;0.00;;;8.00;99.90;;;;;;5083166;28;20245;-62
2023/10/06 02:59:21;;;;;;;0.00;0.00;;;8.00;99.90;;;;;;5091036;28;20678;-62
2023/10/06 03:01:52;;;;;;;0.03;0.03;;;7.90;99.90;;;;;;5091113;28;20253;-63
2023/10/06 03:04:22;;;;;;;0.00;0.00;;;7.90;99.90;;;;;;5090883;28;20172;-63
2023/10/06 03:06:55;;;;;;;0.15;0.15;;;7.90;99.90;;;;;;5090841;28;20184;-62
2023/10/06 03:09:21;;;;;;;0.00;0.00;;;7.90;99.90;;;;;;5090653;28;20172;-62
2023/10/06 03:11:50;;;;;;;0.00;0.00;;;7.90;99.90;;;;;;5089892;28;20318;-63
2023/10/06 03:14:37;;;;;;;0.00;0.00;;;7.90;99.90;;;;;;5090929;28;20180;-63
2023/10/06 03:17:03;;;;;;;0.00;0.00;;;7.90;99.90;;;;;;5089081;28;20266;-63
2023/10/06 03:19:32;;;;;;;0.00;0.00;;;7.90;99.90;;;;;;5091006;28;20213;-63
2023/10/06 03:22:01;;;;;;;0.00;0.00;;;7.90;99.90;;;;;;5091368;28;20281;-63
2023/10/06 03:24:31;;;;;;;0.03;0.03;;;7.90;99.90;;;;;;5090989;28;20658;-64
2023/10/06 03:27:07;;;;;;;0.00;0.00;;;7.80;99.90;;;;;;5090796;28;20184;-62
2023/10/06 03:29:46;;;;;;;0.00;0.00;;;7.80;99.90;;;;;;5090921;28;20548;-63
2023/10/06 03:32:13;;;;;;;0.00;0.00;;;7.80;99.90;;;;;;5090927;28;20294;-63
2023/10/06 03:34:39;;;;;;;0.00;0.00;;;7.70;99.90;;;;;;5090445;28;20179;-63
2023/10/06 03:37:09;;;;;;;0.00;0.00;;;7.70;99.90;;;;;;5090500;28;20550;-63
2023/10/06 03:39:38;;;;;;;0.00;0.00;;;7.70;99.90;;;;;;5093008;28;20224;-63
2023/10/06 03:42:10;;;;;;;0.00;0.00;;;7.70;99.90;;;;;;5110449;28;20207;-63
2023/10/06 03:44:36;;;;;;;0.00;0.00;;;7.70;99.90;;;;;;5110689;28;20175;-63
2023/10/06 03:47:07;;;;;;;0.00;0.00;;;7.60;99.90;;;;;;5091122;28;20195;-65
2023/10/06 03:49:33;;;;;;;0.20;0.20;;;7.60;99.90;;;;;;5090058;28;20250;-63
2023/10/06 03:51:59;;;;;;;0.00;0.00;;;7.60;99.90;;;;;;5091326;28;20747;-65
2023/10/06 03:54:24;;;;;;;0.05;0.05;;;7.60;99.90;;;;;;5090456;28;20189;-62
2023/10/06 03:56:50;;;;;;;0.00;0.00;;;7.50;99.90;;;;;;5093541;28;20192;-64
2023/10/06 03:59:16;;;;;;;0.00;0.00;;;7.50;99.90;;;;;;5091095;28;20167;-63
2023/10/06 04:01:45;;;;;;;0.00;0.00;;;7.50;99.90;;;;;;5100950;28;20212;-61
2023/10/06 04:04:15;;;;;;;0.03;0.03;;;7.50;99.90;;;;;;5091070;28;20191;-61
2023/10/06 04:06:41;;;;;;;0.00;0.00;;;7.50;99.90;;;;;;5091677;28;20184;-62
2023/10/06 04:09:08;;;;;;;0.00;0.00;;;7.50;99.90;;;;;;5094669;28;20176;-64
2023/10/06 04:11:34;;;;;;;0.00;0.00;;;7.50;99.90;;;;;;5093280;28;20567;-63
2023/10/06 04:13:59;;;;;;;0.00;0.00;;;7.40;99.90;;;;;;5094535;28;20236;-62
2023/10/06 04:16:25;;;;;;;0.00;0.00;;;7.50;99.90;;;;;;5100955;28;20180;-63
2023/10/06 04:18:51;;;;;;;0.00;0.00;;;7.40;99.90;;;;;;5087277;28;20176;-60
2023/10/06 04:21:17;;;;;;;0.00;0.00;;;7.40;99.90;;;;;;5093988;28;20276;-61
2023/10/06 04:23:42;;;;;;;0.00;0.00;;;7.40;99.90;;;;;;5094610;28;20176;-63
2023/10/06 04:26:09;;;;;;;0.00;0.00;;;7.40;99.90;;;;;;5094157;28;20180;-62
2023/10/06 04:28:36;;;;;;;0.10;0.10;;;7.40;99.90;;;;;;5093742;28;20215;-62
2023/10/06 04:31:02;;;;;;;0.10;0.10;;;7.40;99.90;;;;;;5094170;28;20627;-63
2023/10/06 04:33:30;;;;;;;0.00;0.00;;;7.40;99.90;;;;;;5093690;28;20186;-62
2023/10/06 04:35:56;;;;;;;0.00;0.00;;;7.30;99.90;;;;;;5092749;28;20191;-63
2023/10/06 04:38:29;;;;;;;0.00;0.00;;;7.30;99.90;;;;;;5094035;28;20220;-63
2023/10/06 04:40:56;;;;;;;0.00;0.00;;;7.30;99.90;;;;;;5093742;28;20215;-63
2023/10/06 04:43:22;;;;;;;0.00;0.00;;;7.30;99.90;;;;;;5094113;28;20202;-63
2023/10/06 04:45:48;;;;;;;0.00;0.00;;;7.30;99.90;;;;;;5098249;28;20180;-63
2023/10/06 04:48:15;;;;;;;0.00;0.00;;;7.30;99.90;;;;;;5093814;28;20194;-63
2023/10/06 04:50:44;;;;;;;0.15;0.05;;;7.30;99.90;;;;;;5111405;28;20241;-62
2023/10/06 04:53:11;;;;;;;0.00;0.00;;;7.30;99.90;;;;;;5096367;28;20214;-62
2023/10/06 04:55:39;;;;;;;0.00;0.00;;;7.30;99.90;;;;;;5093851;28;20635;-63
2023/10/06 04:58:07;;;;;;;0.00;0.00;;;7.30;99.90;;;;;;5093753;28;20177;-63
2023/10/06 05:00:33;;;;;;;0.00;0.00;;;7.30;99.90;;;;;;5092385;28;20229;-62
2023/10/06 05:02:59;;;;;;;0.00;0.00;;;7.30;99.90;;;;;;5093772;28;20627;-63
2023/10/06 05:05:26;;;;;;;0.08;0.08;;;7.30;99.90;;;;;;5093703;28;20168;-63
2023/10/06 05:07:53;;;;;;;0.00;0.00;;;7.30;99.90;;;;;;5126544;27;20218;-63
2023/10/06 05:10:25;;;;;;;0.00;0.00;;;7.30;99.90;;;;;;5092419;28;20769;-62
2023/10/06 05:12:54;;;;;;;0.00;0.00;;;7.30;99.90;;;;;;5093236;28;20173;-62
2023/10/06 05:15:26;;;;;;;0.25;0.20;;;7.30;99.90;;;;;;5093206;28;20176;-62
2023/10/06 05:17:56;;;;;;;0.20;0.20;;;7.30;99.90;;;;;;5093136;28;20191;-62
2023/10/06 05:20:29;;;;;;;0.00;0.00;;;7.30;99.90;;;;;;5092922;28;20521;-62
2023/10/06 05:22:56;;;;;;;1.17;0.45;;;7.30;99.90;;;;;;5093477;28;20184;-62
2023/10/06 05:25:22;;;;;;;0.00;0.00;;;7.30;99.90;;;;;;5093284;28;20624;-62
2023/10/06 05:27:47;;;;;;;0.00;0.00;;;7.30;99.90;;;;;;5091918;28;20192;-62
2023/10/06 05:30:13;;;;;;;0.00;0.00;;;7.30;99.90;;;;;;5093329;28;20201;-62
2023/10/06 05:32:42;;;;;;;0.00;0.00;;;7.30;99.90;;;;;;5093151;28;20195;-62
2023/10/06 05:35:08;;;;;;;0.22;0.22;;;7.30;99.90;;;;;;5093115;28;20172;-62
2023/10/06 05:37:33;;;;;;;0.00;0.00;;;7.30;99.90;;;;;;5092927;28;20195;-62
2023/10/06 05:39:59;;;;;;;0.00;0.00;;;7.30;99.90;;;;;;5093250;28;20639;-62
2023/10/06 05:42:26;;;;;;;0.00;0.00;;;7.30;99.90;;;;;;5092941;28;20252;-62
2023/10/06 05:44:53;;;;;;;0.03;0.03;;;7.30;99.90;;;;;;5092895;28;20176;-62
2023/10/06 05:47:19;;;;;;;0.00;0.00;;;7.30;99.90;;;;;;5091639;28;20176;-61
2023/10/06 05:49:49;;;;;;;0.03;0.03;;;7.20;99.90;;;;;;5092495;28;20213;-62
2023/10/06 05:52:16;;;;;;;0.00;0.00;;;7.30;99.90;;;;;;5092806;28;20551;-61
2023/10/06 05:54:42;;;;;;;0.13;0.13;;;7.20;99.90;;;;;;5092576;28;20237;-62
2023/10/06 05:57:09;;;;;;;0.00;0.00;;;7.20;99.90;;;;;;5092682;28;20210;-62
2023/10/06 05:59:36;;;;;;;0.00;0.00;;;7.30;99.90;;;;;;5092600;28;20267;-62
2023/10/06 06:02:04;;;;;;;0.00;0.00;;;7.30;99.90;;;;;;5092632;28;20219;-62
2023/10/06 06:04:30;;;;;;;0.00;0.00;;;7.40;99.90;;;;;;5092642;28;20179;-61
2023/10/06 06:06:57;;;;;;;0.00;0.00;;;7.50;99.90;;;;;;5092768;28;20535;-62
2023/10/06 06:09:27;;;;;;;0.00;0.00;;;7.50;99.90;;;;;;5092545;28;20176;-62
2023/10/06 06:11:52;;;;;;;0.00;0.00;;;7.50;99.90;;;;;;5092409;28;20184;-61
2023/10/06 06:14:21;;;;;;;0.00;0.00;;;7.60;99.90;;;;;;5092478;28;20324;-62
2023/10/06 06:16:47;;;;;;;0.00;0.00;;;7.60;99.90;;;;;;5092158;28;20571;-62
2023/10/06 06:19:13;;;;;;;0.05;0.05;;;7.70;99.90;;;;;;5092436;28;20186;-62
2023/10/06 06:21:39;;;;;;;0.25;0.25;;;7.60;99.90;;;;;;5092301;28;20215;-61
2023/10/06 06:24:06;;;;;;;0.00;0.00;;;7.60;99.90;;;;;;5092315;28;20505;-62
2023/10/06 06:26:32;;;;;;;0.00;0.00;;;7.70;99.90;;;;;;5092274;28;20176;-61
2023/10/06 06:29:02;;;;;;;0.00;0.00;;;7.70;99.90;;;;;;5091831;28;20663;-61
2023/10/06 06:31:32;;;;;;;0.00;0.00;;;7.80;99.90;;;;;;5091977;28;20633;-61
2023/10/06 06:34:04;;;;;;;0.00;0.00;;;7.90;99.90;;;;;;5091151;28;20180;-61
2023/10/06 06:36:31;;;;;;;0.10;0.10;;;8.10;99.90;;;;;;5092144;28;20280;-61
2023/10/06 06:38:58;;;;;;;0.00;0.00;;;8.40;99.90;;;;;;5091918;28;20224;-61
2023/10/06 06:41:24;;;;;;;0.00;0.00;;;8.70;99.90;;;;;;5090891;28;20613;-61
2023/10/06 06:43:54;;;;;;;0.00;0.00;;;9.00;99.90;;;;;;5091952;28;20207;-61
2023/10/06 06:46:20;;;;;;;0.05;0.05;;;9.30;99.90;;;;;;5092035;28;20563;-61
2023/10/06 06:48:46;;;;;;;0.00;0.00;;;9.70;99.90;;;;;;5091663;28;20175;-61
2023/10/06 06:51:12;;;;;;;0.00;0.00;;;10.20;99.90;;;;;;5091949;28;20184;-62
2023/10/06 06:53:39;;;;;;;0.00;0.00;;;10.60;99.90;;;;;;5091916;28;20263;-61
2023/10/06 06:56:05;;;;;;;0.00;0.00;;;11.10;99.90;;;;;;5091695;28;20207;-61
2023/10/06 06:58:32;;;;;;;0.00;0.00;;;11.50;99.90;;;;;;5091818;28;20594;-61
2023/10/06 07:00:58;;;;;;;0.00;0.00;;;11.90;99.90;;;;;;5091827;28;20208;-61
2023/10/06 07:03:24;;;;;;;0.10;0.10;;;12.30;99.90;;;;;;5091824;28;20381;-61
2023/10/06 07:05:50;;;;;;;0.00;0.00;;;12.70;99.90;;;;;;5091562;28;20172;-61
2023/10/06 07:08:16;;;;;;;0.00;0.00;;;13.00;99.90;;;;;;5091686;28;20232;-61
2023/10/06 07:10:52;;;;;;;0.00;0.00;;;13.50;99.90;;;;;;5091477;28;20187;-61
2023/10/06 07:13:17;;;;;;;0.00;0.00;;;13.80;99.90;;;;;;5091590;28;20301;-61
2023/10/06 07:15:43;;;;;;;0.00;0.00;;;14.20;99.90;;;;;;5091372;28;20334;-61
2023/10/06 07:18:11;;;;;;;0.00;0.00;;;14.50;99.90;;;;;;5091519;28;20184;-61
2023/10/06 07:20:37;;;;;;;0.10;0.10;;;14.80;99.90;;;;;;5091343;28;20200;-61
2023/10/06 07:23:03;;;;;;;0.00;0.00;;;15.00;99.90;;;;;;5091736;28;20358;-61
2023/10/06 07:25:29;;;;;;;0.00;0.00;;;15.10;99.90;;;;;;5091431;28;20183;-61
2023/10/06 07:27:57;;;;;;;0.00;0.00;;;15.30;99.90;;;;;;5091392;28;20176;-61
2023/10/06 07:30:25;;;;;;;0.00;0.00;;;15.60;99.90;;;;;;5091358;28;20165;-62
2023/10/06 07:32:52;;;;;;;0.17;0.17;;;15.80;99.90;;;;;;5091398;28;20183;-62
2023/10/06 07:35:19;;;;;;;0.00;0.00;;;16.00;99.90;;;;;;5091349;28;20188;-63
2023/10/06 07:37:47;;;;;;;0.00;0.00;;;16.20;99.90;;;;;;5091043;28;20304;-60
2023/10/06 07:40:15;;;;;;;0.00;0.00;;;16.40;99.90;;;;;;5091287;28;20720;-62
2023/10/06 07:42:45;;;;;;;0.00;0.00;;;16.60;99.70;;;;;;5094237;28;20587;-62
2023/10/06 07:45:12;;;;;;;0.00;0.00;;;16.70;99.50;;;;;;5094283;28;20714;-63
2023/10/06 07:47:39;;;;;;;0.00;0.00;;;16.90;99.00;;;;;;5095315;28;20583;-62
2023/10/06 07:50:05;;;;;;;0.10;0.10;;;17.00;99.10;;;;;;5095143;28;20180;-62
2023/10/06 07:52:32;;;;;;;0.00;0.00;;;17.30;98.80;;;;;;5095149;28;20180;-62
2023/10/06 07:54:58;;;;;;;0.00;0.00;;;17.60;98.20;;;;;;5095273;28;20266;-61
2023/10/06 07:57:24;;;;;;;0.00;0.00;;;17.80;97.90;;;;;;5095063;28;20672;-61
2023/10/06 07:59:50;;;;;;;0.00;0.00;;;18.00;97.70;;;;;;5094998;28;20176;-61
2023/10/06 08:02:15;;;;;;;0.00;0.00;;;18.30;97.10;;;;;;5093707;28;20204;-61
2023/10/06 08:04:41;;;;;;;0.00;0.00;;;18.40;97.00;;;;;;5095002;28;20176;-61
2023/10/06 08:07:06;;;;;;;0.00;0.00;;;18.50;97.00;;;;;;5095015;28;20208;-61
2023/10/06 08:09:32;;;;;;;0.00;0.00;;;18.50;96.20;;;;;;5094937;28;20662;-61
2023/10/06 08:11:58;;;;;;;0.00;0.00;;;18.70;96.50;;;;;;5095029;28;20607;-62
2023/10/06 08:14:24;;;;;;;0.00;0.00;;;19.00;96.00;;;;;;5094771;28;20208;-62
2023/10/06 08:16:50;;;;;;;0.00;0.00;;;19.20;95.90;;;;;;5094759;28;20191;-62
2023/10/06 08:19:16;;;;;;;0.00;0.00;;;19.40;95.40;;;;;;5094721;28;20171;-61
2023/10/06 08:21:42;;;;;;;0.00;0.00;;;19.60;95.50;;;;;;5094460;28;20216;-62
2023/10/06 08:24:08;;;;;;;0.00;0.00;;;19.70;94.60;;;;;;5094862;28;20225;-62
2023/10/06 08:26:36;;;;;;;0.00;0.00;;;19.70;94.80;;;;;;5094582;28;20535;-62
2023/10/06 08:29:04;;;;;;;0.00;0.00;;;19.70;95.20;;;;;;5094443;28;20635;-62
2023/10/06 08:31:30;;;;;;;0.00;0.00;;;19.90;94.80;;;;;;5094350;28;20631;-62
2023/10/06 08:33:58;;;;;;;0.10;0.10;;;20.00;94.80;;;;;;5094338;28;20179;-62
2023/10/06 08:36:23;;;;;;;0.00;0.00;;;20.20;94.20;;;;;;5094299;28;20176;-62
2023/10/06 08:38:51;;;;;;;0.00;0.00;;;20.30;94.20;;;;;;5094123;28;20223;-62
2023/10/06 08:41:26;;;;;;;0.00;0.00;;;20.40;94.30;;;;;;5094306;28;20208;-62
2023/10/06 08:43:53;;;;;;;0.00;0.00;;;20.40;93.60;;;;;;5094418;28;20179;-62
2023/10/06 08:46:19;;;;;;;0.00;0.00;;;20.40;93.60;;;;;;5094214;28;20180;-63
2023/10/06 08:48:46;;;;;;;0.00;0.00;;;20.40;94.10;;;;;;5093879;28;20587;-63
2023/10/06 08:51:14;;;;;;;0.00;0.00;;;20.50;93.60;;;;;;5094217;28;20176;-63
2023/10/06 08:53:42;;;;;;;0.00;0.00;;;20.50;94.40;;;;;;5093532;28;20669;-63
2023/10/06 08:56:08;;;;;;;0.00;0.00;;;20.50;94.20;;;;;;5094308;28;20168;-63
2023/10/06 08:58:35;;;;;;;0.00;0.00;;;20.20;93.90;;;;;;5094218;28;20206;-63
2023/10/06 09:01:00;;;;;;;0.00;0.00;;;20.20;94.20;;;;;;5094052;28;20215;-63
2023/10/06 09:03:27;;;;;;;0.00;0.00;;;20.00;94.40;;;;;;5094044;28;20180;-63
2023/10/06 09:05:53;;;;;;;0.00;0.00;;;19.80;94.10;;;;;;5093919;28;20540;-63
2023/10/06 09:08:18;;;;;;;0.00;0.00;;;19.40;94.00;;;;;;5093943;28;20183;-63
2023/10/06 09:10:49;;;;;;;0.00;0.00;;;19.30;95.10;;;;;;5093761;28;20183;-63
2023/10/06 09:13:18;;;;;;;0.00;0.00;;;19.40;95.50;;;;;;5094169;28;20195;-63
2023/10/06 09:15:56;;;;;;;0.00;0.00;;;19.30;95.10;;;;;;5092435;28;20577;-63
2023/10/06 09:18:27;;;;;;;0.00;0.00;;;19.30;95.50;;;;;;5093662;28;20182;-63
2023/10/06 09:20:54;;;;;;;0.00;0.00;;;19.30;94.40;;;;;;5093689;28;20243;-63
2023/10/06 09:23:34;;;;;;;0.00;0.00;;;19.20;95.30;;;;;;5093670;28;20188;-63
2023/10/06 09:26:01;;;;;;;0.10;0.10;;;19.20;95.30;;;;;;5093674;28;20519;-63
2023/10/06 09:28:27;;;;;;;0.05;0.05;;;19.10;95.40;;;;;;5093629;28;20294;-62
2023/10/06 09:30:57;;;;;;;0.00;0.00;;;19.10;96.10;;;;;;5093500;28;20180;-63
2023/10/06 09:33:38;;;;;;;0.00;0.00;;;18.60;95.10;;;;;;5093393;28;20767;-62
2023/10/06 09:36:07;;;;;;;0.00;0.00;;;18.60;96.30;;;;;;5093381;28;20613;-63
2023/10/06 09:38:35;;;;;;;0.08;0.05;;;18.60;96.20;;;;;;5093213;28;20327;-63
2023/10/06 09:41:00;;;;;;;0.00;0.00;;;18.90;96.50;;;;;;5093286;28;20231;-62
2023/10/06 09:43:33;;;;;;;0.00;0.00;;;19.10;96.50;;;;;;5093143;28;20624;-63
2023/10/06 09:46:03;;;;;;;0.00;0.00;;;19.40;95.90;;;;;;5093429;28;20275;-63
2023/10/06 09:48:33;;;;;;;0.00;0.00;;;19.50;95.60;;;;;;5093039;28;20226;-63
2023/10/06 09:51:02;;;;;;;0.00;0.00;;;19.60;95.60;;;;;;5091930;28;20214;-63
2023/10/06 09:53:30;;;;;;;0.00;0.00;;;19.80;95.70;;;;;;5093038;28;20161;-62
2023/10/06 09:55:56;;;;;;;0.00;0.00;;;20.00;95.60;;;;;;5092949;28;20176;-63
2023/10/06 09:58:23;;;;;;;0.00;0.00;;;20.00;95.10;;;;;;5092811;28;20694;-63
2023/10/06 10:00:49;;;;;;;0.00;0.00;;;20.20;95.20;;;;;;5092850;28;20253;-63
2023/10/06 10:03:16;;;;;;;0.00;0.00;;;20.30;95.40;;;;;;5092905;28;20259;-63
2023/10/06 10:05:43;;;;;;;0.00;0.00;;;20.50;94.80;;;;;;5092309;28;20517;-62
2023/10/06 10:08:10;;;;;;;0.00;0.00;;;20.50;94.70;;;;;;5092851;28;20925;-63
2023/10/06 10:10:39;;;;;;;0.00;0.00;;;20.50;94.60;;;;;;5092591;28;20639;-63
2023/10/06 10:13:34;;;;;;;0.00;0.00;;;20.60;94.30;;;;;;5091365;28;20275;-63
2023/10/06 10:16:32;;;;;;;0.00;0.00;;;20.70;94.10;;;;;;5092672;28;20254;-63
2023/10/06 10:19:07;;;;;;;0.00;0.00;;;20.70;94.60;;;;;;5070805;28;20219;-63
2023/10/06 10:21:34;;;;;;;0.00;0.00;;;20.80;94.00;;;;;;5092482;28;20238;-63
2023/10/06 10:24:07;;;;;;;0.00;0.00;;;20.90;93.80;;;;;;5092499;28;20171;-63
2023/10/06 10:26:37;;;;;;;0.00;0.00;;;21.00;94.30;;;;;;5092356;28;20268;-62
2023/10/06 10:29:12;;;;;;;0.00;0.00;;;21.20;93.70;;;;;;5092372;28;20195;-63
2023/10/06 10:31:38;;;;;;;0.00;0.00;;;21.50;93.20;;;;;;5092187;28;20703;-63
2023/10/06 10:34:05;;;;;;;0.00;0.00;;;21.60;93.40;;;;;;5092345;28;20176;-63
2023/10/06 10:36:31;;;;;;;0.00;0.00;;;21.60;92.80;;;;;;5092269;28;20183;-62
2023/10/06 10:39:07;;;;;;;0.00;0.00;;;21.70;92.90;;;;;;5092108;28;20216;-63
2023/10/06 10:41:37;;;;;;;0.00;0.00;;;21.60;92.90;;;;;;5091997;28;20726;-62
2023/10/06 10:44:06;;;;;;;0.00;0.00;;;21.60;92.40;;;;;;5092191;28;20221;-63
2023/10/06 10:46:40;;;;;;;0.00;0.00;;;21.40;92.30;;;;;;5092162;28;20176;-63
2023/10/06 10:49:09;;;;;;;0.00;0.00;;;21.30;91.70;;;;;;5091900;28;20176;-63
2023/10/06 10:51:48;;;;;;;0.00;0.00;;;21.40;91.20;;;;;;5091983;28;20172;-63
2023/10/06 10:54:18;;;;;;;0.00;0.00;;;21.60;90.90;;;;;;5092104;28;20183;-63
2023/10/06 10:56:49;;;;;;;0.00;0.00;;;21.60;90.90;;;;;;5091744;28;20640;-62
2023/10/06 10:59:16;;;;;;;0.00;0.00;;;21.60;91.20;;;;;;5091976;28;20543;-63
2023/10/06 11:01:43;;;;;;;0.00;0.00;;;21.80;91.00;;;;;;5091624;28;20262;-62
2023/10/06 11:04:18;;;;;;;0.10;0.10;;;21.80;90.30;;;;;;5091723;28;20190;-62
2023/10/06 11:06:45;;;;;;;0.00;0.00;;;22.00;90.70;;;;;;5091545;28;20656;-62
2023/10/06 11:09:37;;;;;;;0.00;0.00;;;21.90;90.70;;;;;;5091821;28;20180;-62
2023/10/06 11:12:19;;;;;;;0.00;0.00;;;21.90;90.00;;;;;;5091595;28;20199;-62
2023/10/06 11:14:45;;;;;;;0.00;0.00;;;22.00;90.00;;;;;;5091354;28;20618;-62
2023/10/06 11:17:12;;;;;;;0.00;0.00;;;22.10;89.10;;;;;;5091467;28;20223;-62
2023/10/06 11:19:38;;;;;;;0.00;0.00;;;22.30;90.00;;;;;;5091403;28;20180;-62
2023/10/06 11:22:13;;;;;;;0.00;0.00;;;22.40;89.20;;;;;;5091367;28;20215;-62
2023/10/06 11:24:44;;;;;;;0.00;0.00;;;22.50;89.50;;;;;;5091477;28;20179;-62
2023/10/06 11:27:22;;;;;;;0.00;0.00;;;22.60;88.60;;;;;;5091564;28;20179;-63
2023/10/06 11:29:51;;;;;;;0.00;0.00;;;22.60;88.90;;;;;;5091339;28;20176;-63
2023/10/06 11:32:17;;;;;;;0.00;0.00;;;22.60;88.10;;;;;;5091498;28;20194;-63
2023/10/06 11:34:45;;;;;;;0.00;0.00;;;22.70;87.30;;;;;;5091296;28;20172;-63
2023/10/06 11:37:12;;;;;;;0.00;0.00;;;22.60;86.40;;;;;;5091424;28;20306;-63
2023/10/06 11:39:38;;;;;;;0.00;0.00;;;22.40;86.30;;;;;;5091107;28;20318;-63
2023/10/06 11:42:25;;;;;;;0.00;0.00;;;22.40;86.40;;;;;;5089990;28;20226;-63
2023/10/06 11:44:54;;;;;;;0.10;0.10;;;22.20;85.00;;;;;;5091296;28;20656;-63
2023/10/06 11:47:26;;;;;;;0.00;0.00;;;22.30;85.00;;;;;;5091368;28;20541;-63
2023/10/06 11:49:55;;;;;;;0.20;0.20;;;22.20;85.10;;;;;;5091186;28;20199;-63
2023/10/06 11:52:21;;;;;;;0.00;0.00;;;22.10;83.80;;;;;;5091249;28;20175;-63
2023/10/06 11:54:47;;;;;;;0.30;0.30;;;21.80;84.70;;;;;;5091163;28;20176;-62
2023/10/06 11:57:16;;;;;;;0.00;0.00;;;21.70;86.10;;;;;;5091308;28;20176;-62
2023/10/06 11:59:51;;;;;;;0.00;0.00;;;21.80;86.30;;;;;;5091000;28;20184;-62
2023/10/06 12:02:18;;;;;;;0.00;0.00;;;21.80;86.20;;;;;;5091058;28;20218;-63
2023/10/06 12:04:44;;;;;;;0.00;0.00;;;21.90;85.90;;;;;;5091074;28;20245;-62
2023/10/06 12:07:23;;;;;;;0.00;0.00;;;21.90;85.10;;;;;;5091169;28;20215;-62
2023/10/06 12:09:50;;;;;;;0.00;0.00;;;21.90;84.30;;;;;;5091012;28;20552;-62
2023/10/06 12:12:18;;;;;;;0.00;0.00;;;21.90;85.00;;;;;;5091126;28;20207;-62
2023/10/06 12:14:45;;;;;;;0.10;0.10;;;22.10;85.10;;;;;;5090850;28;20172;-62
2023/10/06 12:17:15;;;;;;;0.00;0.00;;;22.20;84.80;;;;;;5087029;28;20200;-63
2023/10/06 12:19:44;;;;;;;0.00;0.00;;;22.30;83.30;;;;;;5070827;28;20176;-62
2023/10/06 12:22:09;;;;;;;0.00;0.00;;;22.40;82.50;;;;;;5070884;28;20216;-62
2023/10/06 12:24:35;;;;;;;0.00;0.00;;;22.40;80.10;;;;;;5070744;28;20567;-62
2023/10/06 12:27:00;;;;;;;0.00;0.00;;;22.20;81.10;;;;;;5086567;28;20216;-63
2023/10/06 12:29:28;;;;;;;0.00;0.00;;;22.20;82.00;;;;;;5074330;28;20165;-62
2023/10/06 12:31:56;;;;;;;0.00;0.00;;;22.20;82.60;;;;;;5074380;28;20570;-62
2023/10/06 12:34:23;;;;;;;0.10;0.10;;;22.30;81.90;;;;;;5074417;28;20216;-62
2023/10/06 12:36:48;;;;;;;0.00;0.00;;;22.20;82.70;;;;;;5074247;28;20184;-61
2023/10/06 12:39:30;;;;;;;0.00;0.00;;;22.00;81.50;;;;;;5074088;28;20266;-61
2023/10/06 12:41:57;;;;;;;0.00;0.00;;;21.80;81.90;;;;;;5074066;28;20667;-62
2023/10/06 12:44:23;;;;;;;0.00;0.00;;;21.60;82.90;;;;;;5074073;28;20643;-62
2023/10/06 12:46:48;;;;;;;0.00;0.00;;;21.50;84.10;;;;;;5074098;28;20169;-62
2023/10/06 12:49:18;;;;;;;0.00;0.00;;;21.40;84.30;;;;;;5080962;28;20180;-62
2023/10/06 12:51:44;;;;;;;0.03;0.03;;;21.30;84.20;;;;;;5094225;28;20202;-61
2023/10/06 12:54:09;;;;;;;0.00;0.00;;;21.40;84.80;;;;;;5094305;28;20188;-63
2023/10/06 12:56:35;;;;;;;0.00;0.00;;;21.30;84.70;;;;;;5094178;28;20524;-61
2023/10/06 12:59:01;;;;;;;0.00;0.00;;;21.30;85.60;;;;;;5094174;28;20184;-61
2023/10/06 13:01:30;;;;;;;0.00;0.00;;;21.20;83.60;;;;;;5092717;28;20226;-62
2023/10/06 13:03:56;;;;;;;0.00;0.00;;;21.00;83.10;;;;;;5094026;28;20558;-62
2023/10/06 13:06:22;;;;;;;0.05;0.05;;;21.00;84.00;;;;;;5093891;28;20168;-62
2023/10/06 13:08:49;;;;;;;0.00;0.00;;;21.00;84.10;;;;;;5093853;28;20215;-63